Time;durP1;ratioP1;P1;durP2;ratioP2;P2;SDS_P1;SDS_P2;PMS_P1;PMS_P2;Temp;Humidity;BMP_temperature;BMP_pressure;BME280_temperature;BME280_humidity;BME280_pressure;Samples;Min_cycle;Max_cycle;Signal;HPM_P1;HPM_P2
2021/05/16 00:00:32;;;;;;;0.28;0.22;;;11.90;99.90;;;;;;5110907;28;20158;-71
2021/05/16 00:02:58;;;;;;;0.10;0.10;;;11.90;99.90;;;;;;5110828;28;20187;-71
2021/05/16 00:05:27;;;;;;;0.73;0.73;;;11.90;99.90;;;;;;5110644;28;20187;-71
2021/05/16 00:07:53;;;;;;;0.50;0.50;;;11.90;99.90;;;;;;5092418;28;20166;-71
2021/05/16 00:10:21;;;;;;;0.77;0.77;;;11.90;99.90;;;;;;5110698;28;20159;-71
2021/05/16 00:12:47;;;;;;;0.30;0.30;;;11.90;99.90;;;;;;5092366;28;20170;-71
2021/05/16 00:15:16;;;;;;;0.90;0.90;;;11.90;99.90;;;;;;5110646;28;20191;-71
2021/05/16 00:17:42;;;;;;;0.68;0.68;;;11.90;99.90;;;;;;5092310;28;20159;-72
2021/05/16 00:20:15;;;;;;;0.15;0.15;;;11.90;99.90;;;;;;5110602;28;20156;-71
2021/05/16 00:22:42;;;;;;;1.65;1.17;;;11.90;99.90;;;;;;5110302;28;20163;-71
2021/05/16 00:25:11;;;;;;;0.50;0.50;;;11.90;99.90;;;;;;5110517;28;20159;-71
2021/05/16 00:27:38;;;;;;;0.93;0.68;;;11.90;99.90;;;;;;5092268;28;20188;-71
2021/05/16 00:30:09;;;;;;;0.65;0.65;;;11.90;99.90;;;;;;5110401;28;20167;-72
2021/05/16 00:32:35;;;;;;;0.88;0.32;;;11.80;99.90;;;;;;5092071;28;20186;-72
2021/05/16 00:35:03;;;;;;;0.25;0.25;;;11.80;99.90;;;;;;5109933;28;20199;-72
2021/05/16 00:37:29;;;;;;;0.20;0.20;;;11.80;99.90;;;;;;5092006;28;20167;-72
2021/05/16 00:39:55;;;;;;;0.20;0.20;;;11.80;99.90;;;;;;5109055;28;20257;-72
2021/05/16 00:42:21;;;;;;;0.10;0.10;;;11.90;99.90;;;;;;5110184;28;20155;-72
2021/05/16 00:44:58;;;;;;;0.30;0.30;;;11.80;99.90;;;;;;5109715;28;20191;-72
2021/05/16 00:47:24;;;;;;;0.15;0.15;;;11.80;99.90;;;;;;5110120;28;20256;-72
2021/05/16 00:49:50;;;;;;;1.00;1.00;;;11.90;99.90;;;;;;5110080;28;20168;-72
2021/05/16 00:52:16;;;;;;;0.20;0.20;;;11.90;99.90;;;;;;5109926;28;20163;-72
2021/05/16 00:54:42;;;;;;;0.10;0.10;;;12.00;99.90;;;;;;5109811;28;20199;-71
2021/05/16 00:57:08;;;;;;;2.17;0.52;;;12.00;99.90;;;;;;5109980;28;20151;-72
2021/05/16 00:59:37;;;;;;;0.40;0.40;;;11.90;99.90;;;;;;5109931;28;20171;-72
2021/05/16 01:02:02;;;;;;;0.47;0.47;;;12.00;99.90;;;;;;5091503;28;20167;-71
2021/05/16 01:04:28;;;;;;;0.45;0.30;;;12.10;99.90;;;;;;5087978;28;20210;-72
2021/05/16 01:06:54;;;;;;;0.10;0.10;;;12.20;99.90;;;;;;5089426;28;20160;-73
2021/05/16 01:09:23;;;;;;;0.30;0.30;;;12.10;99.90;;;;;;5089536;28;20160;-71
2021/05/16 01:11:50;;;;;;;2.30;1.17;;;12.10;99.90;;;;;;5089253;28;20171;-71
2021/05/16 01:14:30;;;;;;;0.20;0.20;;;12.20;99.90;;;;;;5087923;28;20249;-71
2021/05/16 01:16:57;;;;;;;0.73;0.73;;;12.20;99.90;;;;;;5089263;28;20219;-71
2021/05/16 01:19:24;;;;;;;0.82;0.38;;;12.30;99.90;;;;;;5089224;28;20183;-72
2021/05/16 01:21:52;;;;;;;0.30;0.30;;;12.20;99.90;;;;;;5097915;28;20167;-72
2021/05/16 01:24:21;;;;;;;0.10;0.10;;;12.30;99.90;;;;;;5091177;28;20206;-72
2021/05/16 01:26:49;;;;;;;0.32;0.32;;;12.30;99.90;;;;;;5109463;28;20152;-72
2021/05/16 01:29:16;;;;;;;0.32;0.32;;;12.30;99.90;;;;;;5109569;28;20162;-72
2021/05/16 01:31:43;;;;;;;0.32;0.20;;;12.30;99.90;;;;;;5109452;28;20233;-72
2021/05/16 01:34:09;;;;;;;0.32;0.32;;;12.20;99.90;;;;;;5109167;28;20202;-71
2021/05/16 01:36:36;;;;;;;0.20;0.20;;;12.30;99.90;;;;;;5109277;28;20278;-71
2021/05/16 01:39:07;;;;;;;1.02;0.95;;;12.20;99.90;;;;;;5108878;28;20171;-71
2021/05/16 01:41:33;;;;;;;2.17;1.33;;;12.30;99.90;;;;;;5109025;28;20223;-71
2021/05/16 01:43:59;;;;;;;0.30;0.30;;;12.30;99.90;;;;;;5108952;28;20152;-72
2021/05/16 01:46:26;;;;;;;0.20;0.20;;;12.40;99.90;;;;;;5109058;28;20258;-72
2021/05/16 01:48:53;;;;;;;0.20;0.20;;;12.40;99.90;;;;;;5109390;28;20163;-72
2021/05/16 01:51:20;;;;;;;1.10;1.10;;;12.40;99.90;;;;;;5109166;28;20171;-72
2021/05/16 01:53:50;;;;;;;0.65;0.65;;;12.40;99.90;;;;;;5112462;28;20229;-73
2021/05/16 01:56:29;;;;;;;0.20;0.20;;;12.30;99.90;;;;;;5113203;28;20297;-72
2021/05/16 01:58:58;;;;;;;0.22;0.22;;;12.20;99.90;;;;;;5113297;28;20160;-71
2021/05/16 02:01:24;;;;;;;0.47;0.47;;;12.10;99.90;;;;;;5113064;28;20151;-72
2021/05/16 02:03:50;;;;;;;0.20;0.20;;;12.10;99.90;;;;;;5113151;28;20172;-72
2021/05/16 02:06:18;;;;;;;0.13;0.13;;;12.00;99.90;;;;;;5112983;28;20210;-73
2021/05/16 02:08:45;;;;;;;0.40;0.40;;;12.00;99.90;;;;;;5113001;28;20214;-73
2021/05/16 02:11:12;;;;;;;0.30;0.30;;;12.00;99.90;;;;;;5112940;28;20163;-72
2021/05/16 02:13:41;;;;;;;0.30;0.30;;;12.10;99.90;;;;;;5094409;28;20199;-72
2021/05/16 02:16:08;;;;;;;0.70;0.70;;;12.20;99.90;;;;;;5112804;28;20190;-73
2021/05/16 02:18:34;;;;;;;0.65;0.65;;;12.10;99.90;;;;;;5112842;28;20166;-73
2021/05/16 02:21:02;;;;;;;4.85;1.48;;;12.10;99.90;;;;;;5112677;28;20152;-72
2021/05/16 02:23:28;;;;;;;0.15;0.15;;;12.10;99.90;;;;;;5112801;28;20159;-72
2021/05/16 02:25:54;;;;;;;0.73;0.73;;;12.10;99.90;;;;;;5112597;28;20193;-72
2021/05/16 02:28:21;;;;;;;0.63;0.63;;;12.20;99.90;;;;;;5112714;28;20211;-72
2021/05/16 02:30:47;;;;;;;0.40;0.40;;;12.30;99.90;;;;;;5112500;28;20151;-72
2021/05/16 02:33:14;;;;;;;0.20;0.20;;;12.30;99.90;;;;;;5112589;28;20156;-72
2021/05/16 02:35:40;;;;;;;0.57;0.57;;;12.20;99.90;;;;;;5112346;28;20266;-72
2021/05/16 02:38:06;;;;;;;0.45;0.28;;;12.20;99.90;;;;;;5112416;28;20215;-71
2021/05/16 02:40:33;;;;;;;0.20;0.20;;;12.20;99.90;;;;;;5112392;28;20256;-72
2021/05/16 02:43:00;;;;;;;0.20;0.20;;;12.30;99.90;;;;;;5111328;28;20204;-70
2021/05/16 02:45:26;;;;;;;0.20;0.20;;;12.20;99.90;;;;;;5093702;28;20258;-71
2021/05/16 02:47:52;;;;;;;0.32;0.32;;;12.00;99.90;;;;;;5094239;28;20182;-71
2021/05/16 02:50:19;;;;;;;0.10;0.10;;;11.90;99.90;;;;;;5094090;28;20171;-71
2021/05/16 02:52:45;;;;;;;0.30;0.28;;;12.00;99.90;;;;;;5112147;28;20156;-71
2021/05/16 02:55:11;;;;;;;0.20;0.20;;;11.90;99.90;;;;;;5112061;28;20191;-71
2021/05/16 02:57:38;;;;;;;0.13;0.13;;;12.00;99.90;;;;;;5093965;28;20168;-71
2021/05/16 03:00:06;;;;;;;0.40;0.40;;;12.00;99.90;;;;;;5112098;28;20160;-71
2021/05/16 03:02:32;;;;;;;0.30;0.30;;;11.90;99.90;;;;;;5112044;28;20156;-71
2021/05/16 03:04:57;;;;;;;0.22;0.22;;;11.80;99.90;;;;;;5093361;28;20267;-72
2021/05/16 03:07:23;;;;;;;0.00;0.00;;;11.80;99.90;;;;;;5111999;28;20159;-72
2021/05/16 03:09:49;;;;;;;1.10;0.77;;;11.90;99.90;;;;;;5093685;28;20179;-71
2021/05/16 03:12:15;;;;;;;0.10;0.10;;;11.80;99.90;;;;;;5112115;28;20168;-71
2021/05/16 03:14:41;;;;;;;0.10;0.10;;;11.80;99.90;;;;;;5111714;28;20195;-71
2021/05/16 03:17:08;;;;;;;0.47;0.47;;;11.80;99.90;;;;;;5111799;28;20155;-71
2021/05/16 03:19:34;;;;;;;0.10;0.10;;;11.70;99.90;;;;;;5111718;28;20187;-71
2021/05/16 03:22:01;;;;;;;0.10;0.10;;;11.50;99.90;;;;;;5111691;28;20160;-71
2021/05/16 03:24:28;;;;;;;0.10;0.10;;;11.40;99.90;;;;;;5111598;28;20259;-71
2021/05/16 03:26:55;;;;;;;0.10;0.10;;;11.40;99.90;;;;;;5093476;28;20167;-72
2021/05/16 03:29:20;;;;;;;0.28;0.28;;;11.40;99.90;;;;;;5093539;28;20176;-72
2021/05/16 03:31:46;;;;;;;0.10;0.10;;;11.40;99.90;;;;;;5111554;28;20219;-72
2021/05/16 03:34:12;;;;;;;0.30;0.30;;;11.30;99.90;;;;;;5111392;28;20253;-71
2021/05/16 03:36:38;;;;;;;0.10;0.10;;;11.30;99.90;;;;;;5111558;28;20605;-72
2021/05/16 03:39:06;;;;;;;0.10;0.10;;;11.30;99.90;;;;;;5111175;28;20152;-71
2021/05/16 03:41:31;;;;;;;0.28;0.28;;;11.30;99.90;;;;;;5111236;28;20266;-71
2021/05/16 03:43:57;;;;;;;0.10;0.10;;;11.30;99.90;;;;;;5092694;28;20195;-71
2021/05/16 03:46:23;;;;;;;0.13;0.13;;;11.20;99.90;;;;;;5111246;28;20167;-72
2021/05/16 03:48:49;;;;;;;0.17;0.17;;;11.20;99.90;;;;;;5111226;28;20242;-72
2021/05/16 03:51:15;;;;;;;0.10;0.10;;;11.20;99.90;;;;;;5093147;28;20207;-72
2021/05/16 03:53:41;;;;;;;0.70;0.70;;;11.20;99.90;;;;;;5110997;28;20258;-72
2021/05/16 03:56:09;;;;;;;0.10;0.10;;;11.10;99.90;;;;;;5092869;28;20195;-72
2021/05/16 03:58:36;;;;;;;0.10;0.10;;;11.30;99.90;;;;;;5111032;28;20159;-72
2021/05/16 04:01:03;;;;;;;0.10;0.10;;;11.30;99.90;;;;;;5092822;28;20171;-72
2021/05/16 04:03:29;;;;;;;0.20;0.20;;;11.30;99.90;;;;;;5110927;28;20191;-71
2021/05/16 04:05:55;;;;;;;0.10;0.10;;;11.20;99.90;;;;;;5092800;28;20179;-71
2021/05/16 04:08:21;;;;;;;0.10;0.10;;;11.30;99.90;;;;;;5110777;28;20208;-71
2021/05/16 04:10:47;;;;;;;0.10;0.10;;;11.30;99.90;;;;;;5110926;28;20242;-71
2021/05/16 04:13:13;;;;;;;0.10;0.10;;;11.30;99.90;;;;;;5110579;28;20187;-71
2021/05/16 04:15:39;;;;;;;0.40;0.40;;;11.50;99.90;;;;;;5109696;28;20193;-71
2021/05/16 04:18:05;;;;;;;0.30;0.30;;;11.60;99.90;;;;;;5110721;28;20162;-71
2021/05/16 04:20:31;;;;;;;0.30;0.30;;;11.50;99.90;;;;;;5110609;28;20156;-71
2021/05/16 04:23:00;;;;;;;1.75;0.43;;;11.60;99.90;;;;;;5092420;28;20174;-71
2021/05/16 04:25:27;;;;;;;0.10;0.10;;;11.70;99.90;;;;;;5092237;28;20182;-71
2021/05/16 04:27:54;;;;;;;0.10;0.10;;;11.70;99.90;;;;;;5110561;28;20184;-72
2021/05/16 04:30:21;;;;;;;0.10;0.10;;;11.70;99.90;;;;;;5110596;28;20155;-72
2021/05/16 04:32:46;;;;;;;0.20;0.20;;;11.60;99.90;;;;;;5110271;28;20164;-71
2021/05/16 04:35:13;;;;;;;0.10;0.10;;;11.60;99.90;;;;;;5110266;28;20190;-71
2021/05/16 04:37:39;;;;;;;0.13;0.13;;;11.40;99.90;;;;;;5110313;28;20211;-71
2021/05/16 04:40:05;;;;;;;0.52;0.52;;;11.40;99.90;;;;;;5109820;28;20211;-71
2021/05/16 04:42:31;;;;;;;0.10;0.10;;;11.50;99.90;;;;;;5092029;28;20588;-71
2021/05/16 04:44:58;;;;;;;0.10;0.10;;;11.50;99.90;;;;;;5109828;28;20193;-71
2021/05/16 04:47:24;;;;;;;0.22;0.22;;;11.50;99.90;;;;;;5110135;28;20212;-71
2021/05/16 04:49:51;;;;;;;0.20;0.20;;;11.50;99.90;;;;;;5110038;28;20179;-71
2021/05/16 04:52:18;;;;;;;0.43;0.43;;;11.60;99.90;;;;;;5110112;28;20198;-71
2021/05/16 04:54:43;;;;;;;0.10;0.10;;;11.60;99.90;;;;;;5109809;28;20284;-71
2021/05/16 04:57:10;;;;;;;0.35;0.35;;;11.90;99.90;;;;;;5109748;28;20156;-71
2021/05/16 04:59:36;;;;;;;0.98;0.55;;;12.00;99.90;;;;;;5091705;28;20164;-71
2021/05/16 05:02:06;;;;;;;0.47;0.47;;;12.10;99.90;;;;;;5109944;28;20148;-71
2021/05/16 05:04:36;;;;;;;0.10;0.10;;;12.00;99.90;;;;;;5109769;28;20190;-71
2021/05/16 05:07:06;;;;;;;0.10;0.10;;;12.10;99.90;;;;;;5109893;28;20152;-73
2021/05/16 05:09:34;;;;;;;0.25;0.25;;;12.30;99.90;;;;;;5109690;28;20171;-73
2021/05/16 05:12:00;;;;;;;0.30;0.30;;;12.50;99.90;;;;;;5091674;28;20227;-71
2021/05/16 05:14:28;;;;;;;0.10;0.10;;;12.60;99.90;;;;;;5109726;28;20207;-72
2021/05/16 05:16:55;;;;;;;0.03;0.03;;;12.40;99.90;;;;;;5091581;28;20171;-72
2021/05/16 05:19:21;;;;;;;0.10;0.10;;;12.50;99.90;;;;;;5109509;28;20155;-72
2021/05/16 05:21:48;;;;;;;0.20;0.20;;;12.40;99.90;;;;;;5109578;28;20635;-72
2021/05/16 05:24:13;;;;;;;0.10;0.10;;;12.50;99.90;;;;;;5109574;28;20198;-72
2021/05/16 05:26:39;;;;;;;0.25;0.25;;;12.60;99.90;;;;;;5109465;28;20166;-72
2021/05/16 05:29:05;;;;;;;0.10;0.10;;;12.60;99.90;;;;;;5109505;28;20174;-72
2021/05/16 05:31:32;;;;;;;0.10;0.10;;;12.60;99.90;;;;;;5109577;28;20695;-72
2021/05/16 05:33:57;;;;;;;0.05;0.05;;;12.70;99.90;;;;;;5091301;28;20612;-71
2021/05/16 05:36:23;;;;;;;0.10;0.10;;;12.80;99.90;;;;;;5091184;28;20203;-71
2021/05/16 05:38:49;;;;;;;0.20;0.20;;;12.90;99.90;;;;;;5109125;28;20160;-71
2021/05/16 05:41:15;;;;;;;0.22;0.22;;;13.00;99.90;;;;;;5109122;28;20270;-71
2021/05/16 05:43:41;;;;;;;0.10;0.10;;;12.80;99.90;;;;;;5108989;28;20697;-71
2021/05/16 05:46:07;;;;;;;0.17;0.17;;;13.00;99.90;;;;;;5109394;28;20182;-71
2021/05/16 05:48:33;;;;;;;0.00;0.00;;;13.20;99.90;;;;;;5109175;28;20160;-70
2021/05/16 05:50:59;;;;;;;0.10;0.10;;;13.40;99.90;;;;;;5109325;28;20158;-71
2021/05/16 05:53:25;;;;;;;0.10;0.10;;;13.40;99.90;;;;;;5109096;28;20203;-70
2021/05/16 05:55:51;;;;;;;0.10;0.10;;;13.50;99.90;;;;;;5109328;28;20160;-70
2021/05/16 05:58:17;;;;;;;0.10;0.10;;;13.50;99.90;;;;;;5091115;28;20167;-71
2021/05/16 06:00:43;;;;;;;0.10;0.10;;;13.40;99.90;;;;;;5090999;28;20195;-70
2021/05/16 06:03:09;;;;;;;0.10;0.10;;;13.30;99.90;;;;;;5108765;28;20191;-71
2021/05/16 06:05:35;;;;;;;0.08;0.08;;;13.40;99.90;;;;;;5109239;28;20191;-71
2021/05/16 06:08:02;;;;;;;0.10;0.10;;;13.60;99.90;;;;;;5090890;28;20163;-71
2021/05/16 06:10:28;;;;;;;1.00;0.40;;;13.60;99.90;;;;;;5109104;28;20163;-71
2021/05/16 06:12:54;;;;;;;0.55;0.55;;;13.90;99.90;;;;;;5108834;28;20182;-70
2021/05/16 06:15:23;;;;;;;0.10;0.10;;;14.00;99.90;;;;;;5108962;28;20179;-71
2021/05/16 06:17:51;;;;;;;0.38;0.38;;;14.10;99.90;;;;;;5108964;28;20167;-72
2021/05/16 06:20:18;;;;;;;0.00;0.00;;;14.10;99.90;;;;;;5108394;28;20167;-72
2021/05/16 06:22:44;;;;;;;0.10;0.10;;;14.10;99.90;;;;;;5108454;28;20163;-72
2021/05/16 06:25:10;;;;;;;0.20;0.20;;;14.20;99.90;;;;;;5108645;28;20188;-72
2021/05/16 06:27:36;;;;;;;0.10;0.10;;;14.40;99.90;;;;;;5108974;28;20163;-72
2021/05/16 06:30:04;;;;;;;0.10;0.10;;;15.60;99.90;;;;;;5108368;28;20221;-72
2021/05/16 06:32:30;;;;;;;0.10;0.10;;;17.20;99.90;;;;;;5090465;28;20197;-72
2021/05/16 06:34:56;;;;;;;0.00;0.00;;;17.90;99.90;;;;;;5108684;28;20196;-72
2021/05/16 06:37:22;;;;;;;0.00;0.00;;;18.20;99.90;;;;;;5108006;28;20163;-72
2021/05/16 06:39:47;;;;;;;0.10;0.10;;;18.50;99.90;;;;;;5111233;28;20234;-72
2021/05/16 06:42:13;;;;;;;0.20;0.20;;;18.20;99.90;;;;;;5112345;28;20190;-72
2021/05/16 06:44:39;;;;;;;0.10;0.10;;;18.40;99.90;;;;;;5093564;28;20228;-73
2021/05/16 06:47:05;;;;;;;0.10;0.10;;;18.10;99.90;;;;;;5112245;28;20156;-72
2021/05/16 06:49:31;;;;;;;0.13;0.13;;;17.00;99.90;;;;;;5112207;28;20156;-72
2021/05/16 06:51:57;;;;;;;0.22;0.22;;;16.40;99.90;;;;;;5093422;28;20182;-72
2021/05/16 06:54:23;;;;;;;0.10;0.10;;;16.00;99.90;;;;;;5110925;28;20214;-72
2021/05/16 06:56:50;;;;;;;0.10;0.10;;;15.50;99.90;;;;;;5091465;28;20172;-72
2021/05/16 06:59:16;;;;;;;0.10;0.10;;;15.80;99.90;;;;;;5090842;28;20152;-74
2021/05/16 07:01:42;;;;;;;0.10;0.10;;;16.90;99.90;;;;;;5090911;28;20239;-73
2021/05/16 07:04:08;;;;;;;0.10;0.10;;;19.50;99.90;;;;;;5090750;28;20251;-71
2021/05/16 07:06:34;;;;;;;0.00;0.00;;;21.00;99.90;;;;;;5091450;28;20215;-70
2021/05/16 07:09:00;;;;;;;0.13;0.13;;;20.70;99.90;;;;;;5091561;28;20224;-71
2021/05/16 07:11:25;;;;;;;0.00;0.00;;;22.70;99.90;;;;;;5091091;28;20159;-71
2021/05/16 07:13:51;;;;;;;0.00;0.00;;;24.00;99.90;;;;;;5091367;28;20238;-71
2021/05/16 07:16:17;;;;;;;0.10;0.10;;;24.20;99.90;;;;;;5090964;28;20173;-73
2021/05/16 07:18:44;;;;;;;0.10;0.10;;;22.90;99.90;;;;;;5072610;28;20182;-73
2021/05/16 07:21:10;;;;;;;0.10;0.10;;;22.50;99.90;;;;;;5090599;28;20158;-73
2021/05/16 07:23:36;;;;;;;0.52;0.50;;;22.40;99.90;;;;;;5090444;28;20292;-72
2021/05/16 07:26:02;;;;;;;0.00;0.00;;;23.10;99.90;;;;;;5107840;28;20182;-73
2021/05/16 07:28:28;;;;;;;0.20;0.10;;;22.90;99.90;;;;;;5110746;28;20163;-73
2021/05/16 07:30:54;;;;;;;1.00;1.00;;;21.30;99.90;;;;;;5092411;28;20198;-72
2021/05/16 07:33:20;;;;;;;0.75;0.55;;;21.30;99.90;;;;;;5110405;28;20647;-71
2021/05/16 07:35:45;;;;;;;0.10;0.10;;;20.40;99.90;;;;;;5110384;28;20194;-72
2021/05/16 07:38:11;;;;;;;0.10;0.10;;;20.20;99.90;;;;;;5110512;28;20642;-73
2021/05/16 07:40:37;;;;;;;0.00;0.00;;;21.20;99.90;;;;;;5110185;28;20206;-72
2021/05/16 07:43:04;;;;;;;0.10;0.10;;;21.60;99.90;;;;;;5110342;28;20254;-71
2021/05/16 07:45:32;;;;;;;0.10;0.10;;;22.70;99.90;;;;;;5110256;28;20170;-72
2021/05/16 07:47:58;;;;;;;0.03;0.03;;;23.10;99.90;;;;;;5109784;28;20179;-72
2021/05/16 07:50:24;;;;;;;0.10;0.10;;;23.70;99.90;;;;;;5110807;28;20185;-74
2021/05/16 07:52:50;;;;;;;0.00;0.00;;;24.50;99.90;;;;;;5110702;28;20235;-72
2021/05/16 07:55:16;;;;;;;0.00;0.00;;;24.60;99.90;;;;;;5091713;28;20214;-73
2021/05/16 07:57:43;;;;;;;0.63;0.10;;;24.70;99.90;;;;;;5110738;28;20573;-72
2021/05/16 08:00:12;;;;;;;0.00;0.00;;;23.30;99.90;;;;;;5116916;28;20225;-72
2021/05/16 08:02:41;;;;;;;0.00;0.00;;;24.80;99.90;;;;;;5091264;28;20167;-72
2021/05/16 08:05:12;;;;;;;0.00;0.00;;;26.80;99.90;;;;;;5122338;28;20233;-72
2021/05/16 08:07:39;;;;;;;0.20;0.20;;;26.40;99.90;;;;;;5105737;28;20182;-71
2021/05/16 08:10:06;;;;;;;0.13;0.13;;;25.40;99.90;;;;;;5121858;28;20188;-71
2021/05/16 08:12:34;;;;;;;0.00;0.00;;;25.20;99.90;;;;;;5130423;28;20174;-72
2021/05/16 08:15:00;;;;;;;0.10;0.10;;;23.80;99.90;;;;;;5130464;28;20261;-72
2021/05/16 08:17:25;;;;;;;0.30;0.30;;;24.30;99.90;;;;;;5111954;28;20166;-72
2021/05/16 08:19:51;;;;;;;0.10;0.10;;;25.20;99.90;;;;;;5130182;28;20188;-72
2021/05/16 08:22:17;;;;;;;0.10;0.10;;;26.70;99.90;;;;;;5112191;28;20539;-72
2021/05/16 08:24:43;;;;;;;0.10;0.10;;;26.70;99.90;;;;;;5108894;28;20213;-71
2021/05/16 08:27:09;;;;;;;0.10;0.10;;;24.20;99.90;;;;;;5123097;28;20241;-71
2021/05/16 08:29:36;;;;;;;0.10;0.10;;;23.00;99.90;;;;;;5130049;28;20197;-71
2021/05/16 08:32:06;;;;;;;0.20;0.20;;;24.00;99.90;;;;;;5091658;28;20235;-72
2021/05/16 08:34:33;;;;;;;0.10;0.10;;;25.20;99.90;;;;;;5117553;28;20207;-72
2021/05/16 08:37:00;;;;;;;0.10;0.10;;;27.20;99.90;;;;;;5111573;28;20165;-72
2021/05/16 08:39:27;;;;;;;0.30;0.30;;;27.90;99.90;;;;;;5130031;28;20194;-72
2021/05/16 08:41:53;;;;;;;0.30;0.30;;;27.20;99.90;;;;;;5108055;28;20223;-72
2021/05/16 08:44:20;;;;;;;0.73;0.68;;;27.00;99.90;;;;;;5109622;28;20212;-72
2021/05/16 08:46:47;;;;;;;0.45;0.45;;;27.60;99.90;;;;;;5109557;28;20628;-72
2021/05/16 08:49:12;;;;;;;0.10;0.10;;;26.50;99.90;;;;;;5109299;28;20198;-72
2021/05/16 08:51:39;;;;;;;0.10;0.10;;;26.60;99.90;;;;;;5109447;28;20167;-71
2021/05/16 08:54:05;;;;;;;0.20;0.20;;;26.60;99.90;;;;;;5109518;28;20191;-72
2021/05/16 08:56:31;;;;;;;0.10;0.10;;;27.20;99.90;;;;;;5107681;28;20179;-71
2021/05/16 08:58:57;;;;;;;0.10;0.10;;;25.80;99.90;;;;;;5109083;28;20239;-72
2021/05/16 09:01:25;;;;;;;0.00;0.00;;;25.20;99.90;;;;;;5102158;28;20555;-72
2021/05/16 09:03:52;;;;;;;0.00;0.00;;;25.00;99.90;;;;;;5109309;28;20175;-72
2021/05/16 09:06:31;;;;;;;0.00;0.00;;;25.70;99.90;;;;;;5108793;28;20174;-72
2021/05/16 09:08:57;;;;;;;0.10;0.10;;;26.70;99.90;;;;;;5108646;28;20280;-72
2021/05/16 09:11:23;;;;;;;0.00;0.00;;;28.00;99.90;;;;;;5107893;28;20178;-72
2021/05/16 09:13:53;;;;;;;0.05;0.05;;;27.60;99.90;;;;;;5108815;28;20201;-72
2021/05/16 09:16:20;;;;;;;0.20;0.20;;;26.70;99.90;;;;;;5108729;28;20163;-72
2021/05/16 09:18:54;;;;;;;0.20;0.20;;;26.90;99.90;;;;;;5108985;28;20198;-72
2021/05/16 09:21:32;;;;;;;0.15;0.15;;;27.60;99.90;;;;;;5109056;28;20165;-72
2021/05/16 09:24:03;;;;;;;0.00;0.00;;;27.50;99.90;;;;;;5109004;28;20186;-72
2021/05/16 09:26:35;;;;;;;0.03;0.03;;;25.60;99.90;;;;;;5102096;28;20186;-71
2021/05/16 09:29:29;;;;;;;0.00;0.00;;;25.30;99.90;;;;;;5108746;28;20199;-72
2021/05/16 09:32:00;;;;;;;0.00;0.00;;;25.10;99.90;;;;;;5106373;28;20163;-72
2021/05/16 09:34:27;;;;;;;0.10;0.10;;;24.90;99.90;;;;;;5095360;28;20261;-72
2021/05/16 09:36:54;;;;;;;0.15;0.10;;;24.40;99.90;;;;;;5108478;28;20174;-72
2021/05/16 09:39:24;;;;;;;0.10;0.10;;;25.40;99.90;;;;;;5108673;28;20212;-72
2021/05/16 09:41:54;;;;;;;0.05;0.05;;;25.90;99.90;;;;;;5125540;28;20209;-72
2021/05/16 09:44:57;;;;;;;0.00;0.00;;;26.70;99.90;;;;;;5129238;28;20222;-73
2021/05/16 09:47:26;;;;;;;0.10;0.10;;;26.90;99.90;;;;;;5128966;28;20183;-72
2021/05/16 09:49:54;;;;;;;0.20;0.20;;;26.30;99.90;;;;;;5110542;28;20640;-72
2021/05/16 09:52:25;;;;;;;3.25;0.47;;;25.50;99.90;;;;;;5129176;28;20162;-72
2021/05/16 09:54:55;;;;;;;0.10;0.10;;;23.30;99.90;;;;;;5128772;28;20631;-72
2021/05/16 09:57:22;;;;;;;0.25;0.25;;;21.60;99.90;;;;;;5128772;28;20187;-72
2021/05/16 09:59:48;;;;;;;0.10;0.10;;;22.10;99.90;;;;;;5110229;28;20196;-72
2021/05/16 10:02:17;;;;;;;0.10;0.10;;;22.90;99.90;;;;;;5128991;28;20197;-72
2021/05/16 10:04:46;;;;;;;0.10;0.10;;;23.00;99.90;;;;;;5110536;28;20250;-72
2021/05/16 10:07:12;;;;;;;0.10;0.10;;;21.90;99.90;;;;;;5110665;28;20257;-72
2021/05/16 10:09:39;;;;;;;0.10;0.10;;;21.80;99.90;;;;;;5128623;28;20250;-72
2021/05/16 10:12:08;;;;;;;0.30;0.30;;;22.20;99.90;;;;;;5128860;28;20180;-72
2021/05/16 10:14:41;;;;;;;0.20;0.20;;;22.40;99.90;;;;;;5113214;28;20196;-72
2021/05/16 10:17:08;;;;;;;0.10;0.10;;;21.40;99.90;;;;;;5132629;28;20167;-72
2021/05/16 10:19:37;;;;;;;0.10;0.10;;;19.80;99.90;;;;;;5132757;28;20201;-72
2021/05/16 10:22:10;;;;;;;0.00;0.00;;;19.20;99.90;;;;;;5099918;28;20175;-72
2021/05/16 10:24:51;;;;;;;0.10;0.10;;;20.50;99.90;;;;;;5132694;28;20173;-72
2021/05/16 10:27:22;;;;;;;0.05;0.05;;;23.10;99.90;;;;;;5127259;28;20257;-72
2021/05/16 10:29:56;;;;;;;0.03;0.03;;;25.30;99.90;;;;;;5113386;28;20173;-72
2021/05/16 10:32:32;;;;;;;0.00;0.00;;;24.80;99.90;;;;;;5125941;28;20202;-72
2021/05/16 10:35:03;;;;;;;1.10;0.20;;;24.80;99.90;;;;;;5093881;28;20191;-72
2021/05/16 10:37:51;;;;;;;0.10;0.10;;;26.20;99.90;;;;;;5093803;28;20194;-72
2021/05/16 10:40:23;;;;;;;0.10;0.10;;;26.70;99.90;;;;;;5090299;28;20297;-72
2021/05/16 10:42:54;;;;;;;0.00;0.00;;;25.90;99.90;;;;;;5091772;28;20235;-72
2021/05/16 10:45:30;;;;;;;0.00;0.00;;;25.00;99.90;;;;;;5090331;28;20182;-73
2021/05/16 10:48:08;;;;;;;1.35;0.20;;;25.30;99.90;;;;;;5091705;28;20274;-73
2021/05/16 10:50:38;;;;;;;0.13;0.13;;;26.80;99.90;;;;;;5090408;28;20251;-73
2021/05/16 10:53:19;;;;;;;0.00;0.00;;;27.20;99.90;;;;;;5091555;28;20202;-73
2021/05/16 10:55:48;;;;;;;0.10;0.10;;;26.70;99.90;;;;;;5091507;28;20183;-72
2021/05/16 10:58:32;;;;;;;0.00;0.00;;;27.40;99.90;;;;;;5091361;28;20235;-72
2021/05/16 11:01:17;;;;;;;0.10;0.10;;;26.40;99.90;;;;;;5091239;28;20175;-73
2021/05/16 11:03:57;;;;;;;0.10;0.10;;;25.80;99.90;;;;;;5090060;28;20175;-73
2021/05/16 11:06:30;;;;;;;0.00;0.00;;;24.60;99.90;;;;;;5089867;28;20190;-73
2021/05/16 11:08:56;;;;;;;0.10;0.10;;;24.60;99.90;;;;;;5091390;28;20160;-73
2021/05/16 11:11:41;;;;;;;0.10;0.10;;;25.00;99.90;;;;;;5090624;28;20218;-73
2021/05/16 11:14:14;;;;;;;1.02;0.30;;;24.70;99.90;;;;;;5090394;28;20259;-73
2021/05/16 11:16:56;;;;;;;0.10;0.10;;;24.90;99.90;;;;;;5097752;28;20202;-73
2021/05/16 11:19:23;;;;;;;0.08;0.03;;;25.70;99.90;;;;;;5091829;28;20171;-73
2021/05/16 11:21:50;;;;;;;0.00;0.00;;;24.20;99.90;;;;;;5080052;28;20192;-73
2021/05/16 11:24:31;;;;;;;0.22;0.22;;;22.40;99.90;;;;;;5082240;28;20174;-73
2021/05/16 11:26:57;;;;;;;0.00;0.00;;;21.20;99.90;;;;;;5083124;28;20269;-73
2021/05/16 11:29:23;;;;;;;0.10;0.10;;;21.20;99.90;;;;;;5082886;28;20163;-72
2021/05/16 11:32:02;;;;;;;0.30;0.30;;;21.00;99.90;;;;;;5083502;28;20171;-72
2021/05/16 11:34:28;;;;;;;0.50;0.30;;;19.50;99.90;;;;;;5084149;28;20251;-72
2021/05/16 11:36:54;;;;;;;0.40;0.40;;;19.10;99.90;;;;;;5082281;28;20271;-72
2021/05/16 11:39:21;;;;;;;0.10;0.10;;;19.10;99.90;;;;;;5082523;28;20172;-72
2021/05/16 11:41:47;;;;;;;0.10;0.10;;;18.90;99.90;;;;;;5099320;28;20215;-72
2021/05/16 11:44:22;;;;;;;0.10;0.10;;;18.60;99.90;;;;;;5107093;28;20808;-72
2021/05/16 11:46:48;;;;;;;45.58;18.55;;;18.60;99.90;;;;;;5101613;28;20190;-72
2021/05/16 11:49:25;;;;;;;2.38;2.17;;;18.50;99.90;;;;;;5122060;28;20167;-73
2021/05/16 11:51:55;;;;;;;1.00;1.00;;;18.80;99.90;;;;;;5130519;28;20177;-70
2021/05/16 11:54:25;;;;;;;7.85;7.22;;;19.40;99.90;;;;;;5112441;28;20198;-69
2021/05/16 11:56:52;;;;;;;2.30;2.17;;;20.30;99.90;;;;;;5130996;28;20154;-71
2021/05/16 11:59:18;;;;;;;0.60;0.55;;;20.50;99.90;;;;;;5130693;28;20564;-70
2021/05/16 12:01:47;;;;;;;9.85;7.10;;;19.50;99.90;;;;;;5130742;28;20159;-70
2021/05/16 12:04:17;;;;;;;29.38;19.85;;;19.20;99.90;;;;;;5130782;28;20223;-71
2021/05/16 12:06:50;;;;;;;11.18;10.00;;;18.90;99.90;;;;;;5130607;28;20194;-71
2021/05/16 12:09:19;;;;;;;2.03;1.92;;;18.80;99.90;;;;;;5130936;28;20216;-71
2021/05/16 12:11:51;;;;;;;15.60;13.93;;;18.80;99.90;;;;;;5130052;28;20198;-71
2021/05/16 12:14:21;;;;;;;61.88;49.67;;;19.30;99.90;;;;;;5129467;28;20189;-73
2021/05/16 12:16:53;;;;;;;128.35;85.15;;;19.20;99.90;;;;;;5112323;28;20163;-73
2021/05/16 12:19:25;;;;;;;10.85;9.73;;;19.40;99.90;;;;;;5129893;28;20147;-73
2021/05/16 12:22:05;;;;;;;3.20;2.90;;;19.10;99.90;;;;;;5129897;28;20255;-73
2021/05/16 12:24:37;;;;;;;17.92;15.15;;;18.40;99.90;;;;;;5112109;28;20174;-71
2021/05/16 12:27:09;;;;;;;2.10;1.90;;;17.70;99.90;;;;;;5102280;28;20691;-72
2021/05/16 12:29:36;;;;;;;0.95;0.95;;;17.40;99.90;;;;;;5089966;28;20166;-71
2021/05/16 12:32:03;;;;;;;1.00;0.52;;;17.40;99.90;;;;;;5092732;28;20246;-71
2021/05/16 12:34:30;;;;;;;0.30;0.30;;;17.50;99.90;;;;;;5091501;28;20202;-71
2021/05/16 12:37:05;;;;;;;0.15;0.15;;;17.70;99.90;;;;;;5089781;28;20163;-71
2021/05/16 12:39:42;;;;;;;1.30;0.85;;;17.40;99.90;;;;;;5109853;28;20147;-72
2021/05/16 12:42:35;;;;;;;11.07;5.65;;;17.30;99.90;;;;;;5109353;28;20244;-71
2021/05/16 12:45:25;;;;;;;0.73;0.73;;;17.40;99.90;;;;;;5109528;28;20580;-72
2021/05/16 12:48:00;;;;;;;0.43;0.43;;;17.50;99.90;;;;;;5091193;28;20189;-71
2021/05/16 12:50:36;;;;;;;2.60;2.42;;;17.50;99.90;;;;;;5109465;28;20159;-71